Map

Track Data

SID SEASON NUMBER BASIN SUBBASIN NAME ISO_TIME NATURE LAT LON WMO_WIND WMO_PRES WMO_AGENCY TRACK_TYPE DIST2LAND LANDFALL IFLAG USA_AGENCY USA_ATCF_ID USA_LAT USA_LON USA_RECORD USA_STATUS USA_WIND USA_PRES USA_SSHS USA_R34_NE USA_R34_SE USA_R34_SW USA_R34_NW USA_R50_NE USA_R50_SE USA_R50_SW USA_R50_NW USA_R64_NE USA_R64_SE USA_R64_SW USA_R64_NW USA_POCI USA_ROCI USA_RMW USA_EYE TOKYO_LAT TOKYO_LON TOKYO_GRADE TOKYO_WIND TOKYO_PRES TOKYO_R50_DIR TOKYO_R50_LONG TOKYO_R50_SHORT TOKYO_R30_DIR TOKYO_R30_LONG TOKYO_R30_SHORT TOKYO_LAND CMA_LAT CMA_LON CMA_CAT CMA_WIND CMA_PRES HKO_LAT HKO_LON HKO_CAT HKO_WIND HKO_PRES NEWDELHI_LAT NEWDELHI_LON NEWDELHI_GRADE NEWDELHI_WIND NEWDELHI_PRES NEWDELHI_CI NEWDELHI_DP NEWDELHI_POCI REUNION_LAT REUNION_LON REUNION_TYPE REUNION_WIND REUNION_PRES REUNION_TNUM REUNION_CI REUNION_RMW REUNION_R34_NE REUNION_R34_SE REUNION_R34_SW REUNION_R34_NW REUNION_R50_NE REUNION_R50_SE REUNION_R50_SW REUNION_R50_NW REUNION_R64_NE REUNION_R64_SE REUNION_R64_SW REUNION_R64_NW BOM_LAT BOM_LON BOM_TYPE BOM_WIND BOM_PRES BOM_TNUM BOM_CI BOM_RMW BOM_R34_NE BOM_R34_SE BOM_R34_SW BOM_R34_NW BOM_R50_NE BOM_R50_SE BOM_R50_SW BOM_R50_NW BOM_R64_NE BOM_R64_SE BOM_R64_SW BOM_R64_NW BOM_ROCI BOM_POCI BOM_EYE BOM_POS_METHOD BOM_PRES_METHOD NADI_LAT NADI_LON NADI_CAT NADI_WIND NADI_PRES WELLINGTON_LAT WELLINGTON_LON WELLINGTON_WIND WELLINGTON_PRES DS824_LAT DS824_LON DS824_STAGE DS824_WIND DS824_PRES TD9636_LAT TD9636_LON TD9636_STAGE TD9636_WIND TD9636_PRES TD9635_LAT TD9635_LON TD9635_WIND TD9635_PRES TD9635_ROCI NEUMANN_LAT NEUMANN_LON NEUMANN_CLASS NEUMANN_WIND NEUMANN_PRES MLC_LAT MLC_LON MLC_CLASS MLC_WIND MLC_PRES USA_GUST BOM_GUST BOM_GUST_PER REUNION_GUST REUNION_GUST_PER USA_SEAHGT USA_SEARAD_NE USA_SEARAD_SE USA_SEARAD_SW USA_SEARAD_NW STORM_SPEED STORM_DIR
1892298N14144 1892 56 WP MM NOT_NAMED 1892-10-23 16:00:00 NR 13.9000 143.500 main 1824 1750 __________O___ -1 13.9000 143.500 7 57 277
1892298N14144 1892 56 WP MM NOT_NAMED 1892-10-23 18:00:00 NR 14.1296 141.560 main 1750 1460 __________P___ -1 14.1296 141.560 7 55 277
1892298N14144 1892 56 WP MM NOT_NAMED 1892-10-23 21:00:00 NR 14.4334 138.771 main 1460 1201 __________P___ -1 14.4334 138.771 7 51 276
1892298N14144 1892 56 WP MM NOT_NAMED 1892-10-24 00:00:00 NR 14.6769 136.330 main 1201 1016 __________P___ -1 14.6769 136.330 7 42 276
1892298N14144 1892 56 WP MM NOT_NAMED 1892-10-24 03:00:00 NR 14.8551 134.460 main 1019 977 __________P___ -1 14.8551 134.460 7 34 276
1892298N14144 1892 56 WP MM NOT_NAMED 1892-10-24 04:00:00 NR 14.9000 134.000 main 967 899 __________O___ -1 14.9000 134.000 7 22 276
1892298N14144 1892 56 WP MM NOT_NAMED 1892-10-24 06:00:00 NR 14.9696 133.348 main 899 859 __________P___ -1 14.9696 133.348 7 13 277
1892298N14144 1892 56 WP MM NOT_NAMED 1892-10-24 09:00:00 NR 15.0357 132.907 main 859 853 __________P___ -1 15.0357 132.907 7 5 283
1892298N14144 1892 56 WP MM NOT_NAMED 1892-10-24 12:00:00 NR 15.0721 132.872 main 863 863 __________P___ -1 15.0721 132.872 7 1 49
1892298N14144 1892 56 WP MM NOT_NAMED 1892-10-24 15:00:00 NR 15.0936 132.979 main 873 873 __________P___ -1 15.0936 132.979 7 2 77
1892298N14144 1892 56 WP MM NOT_NAMED 1892-10-24 16:00:00 NR 15.1000 133.000 main 873 853 __________O___ -1 15.1000 133.000 7 3 281
1892298N14144 1892 56 WP MM NOT_NAMED 1892-10-24 18:00:00 NR 15.1223 132.831 main 853 833 __________P___ -1 15.1223 132.831 7 5 277
1892298N14144 1892 56 WP MM NOT_NAMED 1892-10-24 21:00:00 NR 15.1496 132.577 main 833 808 __________P___ -1 15.1496 132.577 7 5 276
1892298N14144 1892 56 WP MM NOT_NAMED 1892-10-25 00:00:00 NR 15.1720 132.325 main 808 788 __________P___ -1 15.1720 132.325 7 5 275
1892298N14144 1892 56 WP MM NOT_NAMED 1892-10-25 03:00:00 NR 15.1929 132.080 main 788 778 __________P___ -1 15.1929 132.080 7 5 275
1892298N14144 1892 56 WP MM NOT_NAMED 1892-10-25 04:00:00 NR 15.2000 132.000 main 778 759 __________O___ -1 15.2000 132.000 7 5 277
1892298N14144 1892 56 WP MM NOT_NAMED 1892-10-25 06:00:00 NR 15.2192 131.847 main 759 739 __________P___ -1 15.2192 131.847 7 4 278
1892298N14144 1892 56 WP MM NOT_NAMED 1892-10-25 09:00:00 NR 15.2481 131.624 main 739 725 __________P___ -1 15.2481 131.624 7 4 277
1892298N14144 1892 56 WP MM NOT_NAMED 1892-10-25 12:00:00 NR 15.2744 131.402 main 725 706 __________P___ -1 15.2744 131.402 7 4 276
1892298N14144 1892 56 WP MM NOT_NAMED 1892-10-25 15:00:00 NR 15.2950 131.177 main 706 697 __________P___ -1 15.2950 131.177 7 4 275
1892298N14144 1892 56 WP MM NOT_NAMED 1892-10-25 16:00:00 NR 15.3000 131.100 main 697 678 __________O___ -1 15.3000 131.100 7 4 272
1892298N14144 1892 56 WP MM NOT_NAMED 1892-10-25 18:00:00 NR 15.3030 130.947 main 678 660 __________P___ -1 15.3030 130.947 7 5 270
1892298N14144 1892 56 WP MM NOT_NAMED 1892-10-25 21:00:00 NR 15.3011 130.711 main 660 642 __________P___ -1 15.3011 130.711 7 5 269
1892298N14144 1892 56 WP MM NOT_NAMED 1892-10-26 00:00:00 NR 15.2973 130.462 main 642 615 __________P___ -1 15.2973 130.462 7 5 270
1892298N14144 1892 56 WP MM NOT_NAMED 1892-10-26 03:00:00 NR 15.2978 130.195 main 615 606 __________P___ -1 15.2978 130.195 7 5 270
1892298N14144 1892 56 WP MM NOT_NAMED 1892-10-26 04:00:00 NR 15.3000 130.100 main 606 588 __________O___ -1 15.3000 130.100 7 6 272
1892298N14144 1892 56 WP MM NOT_NAMED 1892-10-26 06:00:00 NR 15.3084 129.898 main 588 562 __________P___ -1 15.3084 129.898 7 6 273
1892298N14144 1892 56 WP MM NOT_NAMED 1892-10-26 09:00:00 NR 15.3271 129.576 main 562 536 __________P___ -1 15.3271 129.576 7 6 274
1892298N14144 1892 56 WP MM NOT_NAMED 1892-10-26 12:00:00 NR 15.3534 129.242 main 536 512 __________P___ -1 15.3534 129.242 7 6 275
1892298N14144 1892 56 WP MM NOT_NAMED 1892-10-26 15:00:00 NR 15.3871 128.909 main 512 502 __________P___ -1 15.3871 128.909 7 6 276
1892298N14144 1892 56 WP MM NOT_NAMED 1892-10-26 16:00:00 NR 15.4000 128.800 main 502 482 __________O___ -1 15.4000 128.800 7 6 277
1892298N14144 1892 56 WP MM NOT_NAMED 1892-10-26 18:00:00 NR 15.4248 128.600 main 482 456 __________P___ -1 15.4248 128.600 7 6 278
1892298N14144 1892 56 WP MM NOT_NAMED 1892-10-26 21:00:00 NR 15.4684 128.305 main 456 426 __________P___ -1 15.4684 128.305 7 6 279
1892298N14144 1892 56 WP MM NOT_NAMED 1892-10-27 00:00:00 NR 15.5197 128.010 main 426 402 __________P___ -1 15.5197 128.010 7 6 281
1892298N14144 1892 56 WP MM NOT_NAMED 1892-10-27 03:00:00 NR 15.5786 127.705 main 402 393 __________P___ -1 15.5786 127.705 7 6 281
1892298N14144 1892 56 WP MM NOT_NAMED 1892-10-27 04:00:00 NR 15.6000 127.600 main 393 374 __________O___ -1 15.6000 127.600 7 6 282
1892298N14144 1892 56 WP MM NOT_NAMED 1892-10-27 06:00:00 NR 15.6443 127.375 main 374 344 __________P___ -1 15.6443 127.375 7 7 282
1892298N14144 1892 56 WP MM NOT_NAMED 1892-10-27 09:00:00 NR 15.7170 127.026 main 344 326 __________P___ -1 15.7170 127.026 7 7 282
1892298N14144 1892 56 WP MM NOT_NAMED 1892-10-27 12:00:00 NR 15.7945 126.670 main 326 302 __________P___ -1 15.7945 126.670 7 7 283
1892298N14144 1892 56 WP MM NOT_NAMED 1892-10-27 15:00:00 NR 15.8738 126.316 main 302 294 __________P___ -1 15.8738 126.316 7 7 283
1892298N14144 1892 56 WP MM NOT_NAMED 1892-10-27 16:00:00 NR 15.9000 126.200 main 294 280 __________O___ -1 15.9000 126.200 7 7 283
1892298N14144 1892 56 WP MM NOT_NAMED 1892-10-27 18:00:00 NR 15.9500 125.967 main 280 263 __________P___ -1 15.9500 125.967 7 7 283
1892298N14144 1892 56 WP MM NOT_NAMED 1892-10-27 21:00:00 NR 16.0250 125.624 main 263 258 __________P___ -1 16.0250 125.624 7 7 283
1892298N14144 1892 56 WP MM NOT_NAMED 1892-10-28 00:00:00 NR 16.1000 125.296 main 258 250 __________P___ -1 16.1000 125.296 7 6 284
1892298N14144 1892 56 WP MM NOT_NAMED 1892-10-28 03:00:00 NR 16.1750 124.994 main 257 254 __________P___ -1 16.1750 124.994 7 6 285
1892298N14144 1892 56 WP MM NOT_NAMED 1892-10-28 04:00:00 NR 16.2000 124.900 main 254 247 __________O___ -1 16.2000 124.900 3 5 283
1892298N14144 1892 56 WP MM NOT_NAMED 1892-10-28 06:00:00 NR 16.2367 124.722 main 247 223 __________P___ -1 16.2367 124.722 3 5 283
1892298N14144 1892 56 WP MM NOT_NAMED 1892-10-28 09:00:00 NR 16.2917 124.480 main 223 199 __________P___ -1 16.2917 124.480 3 5 286
1892298N14144 1892 56 WP MM NOT_NAMED 1892-10-28 12:00:00 NR 16.3603 124.262 main 199 176 __________P___ -1 16.3603 124.262 3 4 293
1892298N14144 1892 56 WP MM NOT_NAMED 1892-10-28 15:00:00 NR 16.4582 124.063 main 176 165 __________P___ -1 16.4582 124.063 3 4 299
1892298N14144 1892 56 WP MM NOT_NAMED 1892-10-28 16:00:00 NR 16.5000 124.000 main 165 142 __________O___ -1 16.5000 124.000 4 5 303
1892298N14144 1892 56 WP MM NOT_NAMED 1892-10-28 18:00:00 NR 16.5943 123.841 main 142 117 __________P___ -1 16.5943 123.841 4 5 306
1892298N14144 1892 56 WP MM NOT_NAMED 1892-10-28 21:00:00 NR 16.7671 123.614 main 117 95 __________P___ -1 16.7671 123.614 4 6 314
1892298N14144 1892 56 WP MM NOT_NAMED 1892-10-29 00:00:00 NR 16.9746 123.428 main 95 85 __________P___ -1 16.9746 123.428 4 5 328
1892298N14144 1892 56 WP MM NOT_NAMED 1892-10-29 03:00:00 NR 17.2138 123.316 main 87 87 __________P___ -1 17.2138 123.316 4 5 339
1892298N14144 1892 56 WP MM NOT_NAMED 1892-10-29 04:00:00 NR 17.3000 123.300 main 91 91 __________O___ -1 17.3000 123.300 4 6 356
1892298N14144 1892 56 WP MM NOT_NAMED 1892-10-29 06:00:00 NR 17.4927 123.291 main 98 98 __________P___ -1 17.4927 123.291 4 6 5
1892298N14144 1892 56 WP MM NOT_NAMED 1892-10-29 09:00:00 NR 17.8074 123.353 main 119 119 __________P___ -1 17.8074 123.353 4 7 17
1892298N14144 1892 56 WP MM NOT_NAMED 1892-10-29 12:00:00 NR 18.1253 123.497 main 128 127 __________P___ -1 18.1253 123.497 4 7 29
1892298N14144 1892 56 WP MM NOT_NAMED 1892-10-29 15:00:00 NR 18.4151 123.713 main 147 147 __________P___ -1 18.4151 123.713 4 7 38
1892298N14144 1892 56 WP MM NOT_NAMED 1892-10-29 16:00:00 NR 18.5000 123.800 main 158 158 __________O___ -1 18.5000 123.800 4 7 48
1892298N14144 1892 56 WP MM NOT_NAMED 1892-10-29 18:00:00 NR 18.6397 123.982 main 180 182 __________P___ -1 18.6397 123.982 4 7 57
1892298N14144 1892 56 WP MM NOT_NAMED 1892-10-29 21:00:00 NR 18.8113 124.312 main 215 215 __________P___ -1 18.8113 124.312 4 7 65
1892298N14144 1892 56 WP MM NOT_NAMED 1892-10-30 00:00:00 NR 18.9486 124.684 main 258 261 __________P___ -1 18.9486 124.684 4 8 71
1892298N14144 1892 56 WP MM NOT_NAMED 1892-10-30 03:00:00 NR 19.0641 125.072 main 305 305 __________P___ -1 19.0641 125.072 4 8 73
1892298N14144 1892 56 WP MM NOT_NAMED 1892-10-30 04:00:00 NR 19.1000 125.200 main 315 315 __________O___ -1 19.1000 125.200 4 7 72
1892298N14144 1892 56 WP MM NOT_NAMED 1892-10-30 06:00:00 NR 19.1780 125.436 main 338 348 __________P___ -1 19.1780 125.436 4 7 72
1892298N14144 1892 56 WP MM NOT_NAMED 1892-10-30 09:00:00 NR 19.2824 125.790 main 381 381 __________P___ -1 19.2824 125.790 4 7 73
1892298N14144 1892 56 WP MM NOT_NAMED 1892-10-30 12:00:00 NR 19.3774 126.142 main 415 425 __________P___ -1 19.3774 126.142 4 7 74
1892298N14144 1892 56 WP MM NOT_NAMED 1892-10-30 15:00:00 NR 19.4691 126.487 main 458 458 __________P___ -1 19.4691 126.487 4 7 74
1892298N14144 1892 56 WP MM NOT_NAMED 1892-10-30 16:00:00 NR 19.5000 126.600 main 468 468 __________O___ -1 19.5000 126.600 4 7 73
1892298N14144 1892 56 WP MM NOT_NAMED 1892-10-30 18:00:00 NR 19.5634 126.823 main 491 491 __________P___ -1 19.5634 126.823 4 7 73
1892298N14144 1892 56 WP MM NOT_NAMED 1892-10-30 21:00:00 NR 19.6619 127.152 main 535 535 __________P___ -1 19.6619 127.152 4 6 72
1892298N14144 1892 56 WP MM NOT_NAMED 1892-10-31 00:00:00 NR 19.7631 127.474 main 568 568 __________P___ -1 19.7631 127.474 4 6 71
1892298N14144 1892 56 WP MM NOT_NAMED 1892-10-31 03:00:00 NR 19.8657 127.794 main 601 601 __________P___ -1 19.8657 127.794 4 6 71
1892298N14144 1892 56 WP MM NOT_NAMED 1892-10-31 04:00:00 NR 19.9000 127.900 main 611 __________O___ -1 19.9000 127.900 7 6 71

Digital Typhoon Data and Search

About IBTrACS Database

This database is a web-friendly format of International Best Track Archive for Climate Stewardship (IBTrACS), a global best track data archive curated by NOAA dating back to 1842.

Updated: 2021-12-03